Time;durP1;ratioP1;P1;durP2;ratioP2;P2;SDS_P1;SDS_P2;PMS_P1;PMS_P2;Temp;Humidity;BMP_temperature;BMP_pressure;BME280_temperature;BME280_humidity;BME280_pressure;Samples;Min_cycle;Max_cycle;Signal;HPM_P1;HPM_P2
2023/01/24 00:00:24;;;;;;;20.13;12.20;;;;;;;7.04;100.00;101712.22;5099665;27;20028;-68
2023/01/24 00:02:49;;;;;;;19.25;12.57;;;;;;;7.03;100.00;101707.84;5101651;27;20050;-68
2023/01/24 00:05:15;;;;;;;17.75;12.75;;;;;;;7.06;100.00;101711.31;5094398;28;20035;-68
2023/01/24 00:07:40;;;;;;;21.67;13.23;;;;;;;7.06;100.00;101708.66;5102719;27;20027;-69
2023/01/24 00:10:07;;;;;;;24.25;14.43;;;;;;;7.00;100.00;101701.84;5096194;27;20170;-68
2023/01/24 00:12:32;;;;;;;21.75;13.57;;;;;;;7.03;100.00;101709.66;5098961;28;20028;-68
2023/01/24 00:14:58;;;;;;;20.50;13.75;;;;;;;6.95;100.00;101702.06;5102999;28;20095;-68
2023/01/24 00:17:24;;;;;;;23.38;14.55;;;;;;;7.02;100.00;101715.09;5100371;28;20015;-68
2023/01/24 00:19:49;;;;;;;17.38;11.80;;;;;;;6.95;100.00;101702.06;5094909;28;20051;-68
2023/01/24 00:22:15;;;;;;;19.92;12.73;;;;;;;7.03;100.00;101718.53;5100060;27;20035;-68
2023/01/24 00:24:40;;;;;;;19.88;13.30;;;;;;;6.91;100.00;101704.97;5091800;27;20028;-68
2023/01/24 00:27:06;;;;;;;18.60;12.00;;;;;;;7.03;100.00;101722.97;5095301;28;20038;-69
2023/01/24 00:29:31;;;;;;;17.20;12.75;;;;;;;6.96;100.00;101713.56;5099120;28;20042;-68
2023/01/24 00:31:57;;;;;;;18.92;12.43;;;;;;;7.02;100.00;101726.59;5099901;28;20088;-69
2023/01/24 00:34:22;;;;;;;20.23;12.43;;;;;;;6.98;100.00;101727.72;5099130;28;20035;-69
2023/01/24 00:36:48;;;;;;;16.13;11.20;;;;;;;6.95;100.00;101720.72;5097922;28;20054;-69
2023/01/24 00:39:13;;;;;;;16.65;11.82;;;;;;;6.94;100.00;101723.47;5097710;28;20565;-69
2023/01/24 00:41:38;;;;;;;16.52;11.07;;;;;;;6.95;100.00;101733.19;5102596;28;20112;-69
2023/01/24 00:44:04;;;;;;;15.25;10.55;;;;;;;6.98;100.00;101752.59;5102694;28;20038;-69
2023/01/24 00:46:30;;;;;;;15.57;10.75;;;;;;;6.97;100.00;101742.84;5098932;28;20024;-69
2023/01/24 00:48:55;;;;;;;15.38;10.00;;;;;;;6.99;100.00;101748.09;5091661;27;20031;-69
2023/01/24 00:51:21;;;;;;;13.55;9.82;;;;;;;6.96;100.00;101749.13;5094866;28;20039;-70
2023/01/24 00:53:46;;;;;;;18.45;12.10;;;;;;;6.98;100.00;101754.38;5102118;28;20531;-69
2023/01/24 00:56:12;;;;;;;15.05;10.73;;;;;;;6.94;100.00;101747.47;5097672;28;20494;-69
2023/01/24 00:58:37;;;;;;;14.85;10.02;;;;;;;6.94;100.00;101753.66;5101504;28;20629;-70
2023/01/24 01:01:03;;;;;;;14.73;10.32;;;;;;;6.93;100.00;101753.72;5105344;28;20035;-69
2023/01/24 01:03:29;;;;;;;15.40;10.38;;;;;;;6.85;100.00;101739.94;5097143;28;20039;-69
2023/01/24 01:06:03;;;;;;;16.23;10.65;;;;;;;6.96;100.00;101765.13;5099551;28;20717;-69
2023/01/24 01:08:29;;;;;;;17.15;11.50;;;;;;;6.92;100.00;101754.69;5098112;28;20114;-69
2023/01/24 01:10:54;;;;;;;14.82;10.57;;;;;;;6.94;100.00;101753.66;5103405;28;20028;-69
2023/01/24 01:13:20;;;;;;;15.98;10.55;;;;;;;6.79;100.00;101738.44;5101932;28;20118;-69
2023/01/24 01:15:45;;;;;;;16.55;10.88;;;;;;;6.90;100.00;101754.75;5103706;28;20070;-69
2023/01/24 01:18:11;;;;;;;17.52;11.52;;;;;;;6.84;100.00;101746.22;5100610;28;20047;-69
2023/01/24 01:20:36;;;;;;;16.48;10.77;;;;;;;6.89;100.00;101762.84;5107276;28;20552;-68
2023/01/24 01:23:02;;;;;;;16.25;11.00;;;;;;;6.86;100.00;101758.53;5094022;28;20084;-68
2023/01/24 01:25:28;;;;;;;18.40;10.50;;;;;;;6.84;100.00;101755.06;5103238;28;20103;-68
2023/01/24 01:27:53;;;;;;;15.57;10.00;;;;;;;6.82;100.00;101756.09;5102842;28;20023;-69
2023/01/24 01:30:19;;;;;;;17.52;11.40;;;;;;;6.79;100.00;101754.44;5098156;27;20115;-69
2023/01/24 01:32:44;;;;;;;18.52;10.85;;;;;;;6.83;100.00;101769.34;5098926;28;20023;-69
2023/01/24 01:35:09;;;;;;;16.20;11.15;;;;;;;6.83;100.00;101772.00;5103369;28;20470;-69
2023/01/24 01:37:35;;;;;;;18.25;11.60;;;;;;;6.83;100.00;101768.47;5108114;28;20027;-68
2023/01/24 01:40:01;;;;;;;17.83;11.45;;;;;;;6.82;100.00;101766.75;5096310;27;20024;-68
2023/01/24 01:42:39;;;;;;;18.65;10.90;;;;;;;6.84;100.00;101775.53;5103668;28;20173;-69
2023/01/24 01:45:36;;;;;;;14.55;9.95;;;;;;;6.83;100.00;101776.47;5106042;27;20054;-69
2023/01/24 01:48:12;;;;;;;16.80;10.18;;;;;;;6.82;100.00;101780.06;5102408;28;20023;-67
2023/01/24 01:50:43;;;;;;;16.17;11.35;;;;;;;6.82;100.00;101778.28;5103759;28;20024;-69
2023/01/24 01:53:09;;;;;;;16.42;11.55;;;;;;;6.80;100.00;101780.16;5103972;28;20022;-70
2023/01/24 01:55:38;;;;;;;14.73;10.63;;;;;;;6.84;100.00;101783.56;5103321;27;20031;-70
2023/01/24 01:58:04;;;;;;;17.83;11.80;;;;;;;6.77;100.00;101777.63;5102411;28;20067;-70
2023/01/24 02:00:30;;;;;;;18.83;12.15;;;;;;;6.79;100.00;101780.22;5106561;27;20051;-70
2023/01/24 02:05:48;;;;;;;17.23;10.88;;;;;;;6.76;100.00;101778.59;5109183;27;20046;-70
2023/01/24 02:08:20;;;;;;;16.88;11.38;;;;;;;6.79;100.00;101785.56;5107188;28;20058;-70
2023/01/24 02:13:31;;;;;;;;;;;;;;;6.74;100.00;101790.28;5095450;28;21147;-68
2023/01/24 02:16:02;;;;;;;19.30;11.65;;;;;;;6.75;100.00;101790.16;5107634;28;19998;-69
2023/01/24 02:18:30;;;;;;;16.40;11.43;;;;;;;6.75;100.00;101789.31;5098375;27;20123;-69
2023/01/24 02:20:56;;;;;;;17.92;11.80;;;;;;;6.74;100.00;101783.13;5107928;27;20472;-68
2023/01/24 02:23:52;;;;;;;17.98;11.30;;;;;;;6.73;100.00;101792.06;5105651;28;20039;-69
2023/01/24 02:26:21;;;;;;;17.23;11.70;;;;;;;6.68;100.00;101788.75;5106803;27;20415;-69
2023/01/24 02:28:54;;;;;;;19.75;12.32;;;;;;;6.70;100.00;101805.53;5102336;28;20019;-69
2023/01/24 02:31:20;;;;;;;19.77;11.75;;;;;;;6.60;100.00;101790.06;5104013;27;20360;-69
2023/01/24 02:33:45;;;;;;;16.52;11.52;;;;;;;6.58;100.00;101782.13;5102863;28;20032;-69
2023/01/24 02:36:40;;;;;;;18.48;11.70;;;;;;;6.67;100.00;101803.03;5104983;28;20039;-69
2023/01/24 02:39:11;;;;;;;18.20;12.75;;;;;;;6.58;100.00;101781.28;5085766;27;21124;-69
2023/01/24 02:41:50;;;;;;;18.45;11.65;;;;;;;6.64;100.00;101803.16;5108634;28;20043;-70
2023/01/24 02:44:29;;;;;;;17.42;11.57;;;;;;;6.60;100.00;101803.38;5100119;27;20092;-70
2023/01/24 02:46:54;;;;;;;21.27;13.27;;;;;;;6.57;100.00;101798.19;5102001;27;20035;-70
2023/01/24 02:49:20;;;;;;;17.75;12.02;;;;;;;6.59;100.00;101799.88;5105038;28;20381;-70
2023/01/24 02:54:30;;;;;;;18.48;12.60;;;;;;;6.63;100.00;101797.91;5104032;28;20052;-70
2023/01/24 02:59:40;;;;;;;18.20;11.27;;;;;;;6.57;100.00;101790.19;5105064;28;20026;-69
2023/01/24 03:02:06;;;;;;;18.40;12.18;;;;;;;6.62;100.00;101794.38;5101014;27;20032;-69
2023/01/24 03:04:31;;;;;;;17.70;12.40;;;;;;;6.63;100.00;101787.25;5108004;28;20042;-69
2023/01/24 03:06:56;;;;;;;16.20;12.02;;;;;;;6.62;100.00;101793.53;5105167;27;20023;-70
2023/01/24 03:09:33;;;;;;;17.85;10.57;;;;;;;6.59;100.00;101785.66;5107060;28;20035;-69
2023/01/24 03:36:41;;;;;;;19.15;12.35;;;;;;;6.46;100.00;101788.06;5102181;28;20050;-70
2023/01/24 03:41:50;;;;;;;16.35;11.48;;;;;;;6.45;100.00;101794.31;5099770;28;20055;-69
2023/01/24 03:44:16;;;;;;;18.73;12.30;;;;;;;6.42;100.00;101785.63;5103269;27;20069;-69
2023/01/24 03:46:41;;;;;;;17.67;11.73;;;;;;;6.42;100.00;101790.94;5100333;28;20034;-69
2023/01/24 03:49:07;;;;;;;16.52;11.27;;;;;;;6.40;100.00;101787.47;5103050;27;20023;-68
2023/01/24 03:54:17;;;;;;;25.45;13.85;;;;;;;6.34;100.00;101780.66;5096743;27;20092;-69
2023/01/24 03:56:42;;;;;;;23.55;13.95;;;;;;;6.39;100.00;101783.09;5101091;27;20032;-69
2023/01/24 03:59:08;;;;;;;23.73;13.35;;;;;;;6.38;100.00;101786.69;5101884;27;20043;-69
2023/01/24 04:01:33;;;;;;;25.58;13.60;;;;;;;6.41;100.00;101803.41;5092546;27;20027;-69
2023/01/24 04:03:59;;;;;;;26.58;13.30;;;;;;;6.39;100.00;101799.94;5100603;27;20439;-69
2023/01/24 04:06:25;;;;;;;30.90;14.15;;;;;;;6.37;100.00;101801.81;5102854;28;20032;-70
2023/01/24 04:08:50;;;;;;;29.13;13.75;;;;;;;6.38;100.00;101808.00;5099860;27;20122;-70
2023/01/24 04:11:16;;;;;;;28.42;13.90;;;;;;;6.40;100.00;101801.69;5102902;27;20030;-70
2023/01/24 04:13:42;;;;;;;26.42;13.70;;;;;;;6.36;100.00;101797.41;5104399;27;20019;-70
2023/01/24 04:16:08;;;;;;;25.08;13.60;;;;;;;6.40;100.00;101793.69;5100484;28;20039;-70
2023/01/24 04:18:35;;;;;;;26.52;15.25;;;;;;;6.33;100.00;101788.72;5106869;28;20055;-70
2023/01/24 04:21:03;;;;;;;23.35;13.52;;;;;;;6.36;100.00;101786.75;5102940;28;20027;-69
2023/01/24 04:23:28;;;;;;;24.17;14.15;;;;;;;6.33;100.00;101781.59;5095278;28;20062;-69
2023/01/24 04:25:59;;;;;;;30.58;15.82;;;;;;;6.39;100.00;101793.75;5107715;27;20054;-69
2023/01/24 04:28:25;;;;;;;30.52;16.25;;;;;;;6.40;100.00;101799.00;5099542;27;20032;-70
2023/01/24 04:30:58;;;;;;;29.00;15.65;;;;;;;6.36;100.00;101792.06;5097693;28;20048;-70
2023/01/24 04:33:24;;;;;;;35.28;17.15;;;;;;;6.34;100.00;101791.31;5103584;28;20137;-70
2023/01/24 04:35:49;;;;;;;37.72;17.20;;;;;;;6.39;100.00;101796.41;5106822;27;20035;-70
2023/01/24 04:38:15;;;;;;;36.17;18.08;;;;;;;6.40;100.00;101801.69;5100452;28;20028;-70
2023/01/24 04:40:40;;;;;;;37.47;18.25;;;;;;;6.37;100.00;101804.47;5102228;28;20024;-70
2023/01/24 04:43:06;;;;;;;41.20;17.58;;;;;;;6.33;100.00;101805.56;5102890;28;20019;-70
2023/01/24 04:45:31;;;;;;;36.80;15.70;;;;;;;6.34;100.00;101811.75;5105992;28;20106;-69
2023/01/24 04:47:57;;;;;;;34.75;16.02;;;;;;;6.26;100.00;101806.75;5100876;28;20027;-69
2023/01/24 04:50:22;;;;;;;34.70;15.82;;;;;;;6.25;100.00;101805.06;5095363;28;20615;-69
2023/01/24 04:52:48;;;;;;;29.63;15.20;;;;;;;6.21;100.00;101814.13;5103481;28;20040;-69
2023/01/24 04:55:13;;;;;;;36.33;14.95;;;;;;;6.16;100.00;101808.13;5091604;27;20027;-69
2023/01/24 04:57:39;;;;;;;32.50;15.40;;;;;;;6.16;100.00;101815.28;5101518;28;20550;-69
2023/01/24 05:00:05;;;;;;;29.00;14.05;;;;;;;6.13;100.00;101813.59;5105903;28;20024;-69
2023/01/24 05:02:32;;;;;;;31.50;15.75;;;;;;;6.14;100.00;101817.13;5102182;28;20031;-70
2023/01/24 05:04:57;;;;;;;28.92;13.43;;;;;;;6.11;100.00;101822.59;5106633;28;20027;-70
2023/01/24 05:07:23;;;;;;;23.02;13.10;;;;;;;6.12;100.00;101830.53;5098817;28;20031;-70
2023/01/24 05:09:49;;;;;;;23.13;12.27;;;;;;;6.05;100.00;101815.75;5097532;28;20042;-70
2023/01/24 05:12:14;;;;;;;21.95;12.73;;;;;;;6.10;99.66;101829.72;5101707;28;20050;-69
2023/01/24 05:14:40;;;;;;;18.67;11.85;;;;;;;6.05;99.36;101829.06;5105618;28;20048;-70
2023/01/24 05:17:05;;;;;;;22.45;12.73;;;;;;;6.05;99.40;101836.19;5107655;28;20468;-70
2023/01/24 05:19:31;;;;;;;20.08;12.60;;;;;;;6.02;98.95;101831.00;5103909;28;20663;-69
2023/01/24 05:21:56;;;;;;;16.17;11.00;;;;;;;6.05;98.26;101836.19;5098382;28;20032;-70
2023/01/24 05:24:22;;;;;;;19.95;12.38;;;;;;;6.04;97.73;101834.47;5108017;28;20092;-70
2023/01/24 05:26:47;;;;;;;17.58;11.50;;;;;;;5.95;97.01;101826.88;5095742;28;20035;-70
2023/01/24 05:29:13;;;;;;;19.98;12.57;;;;;;;5.85;96.35;101806.94;5103254;28;20047;-70
2023/01/24 05:31:38;;;;;;;18.10;12.32;;;;;;;5.90;96.50;101823.59;5093900;28;20035;-69
2023/01/24 05:34:05;;;;;;;18.40;11.10;;;;;;;5.88;94.93;101821.00;5098408;28;20023;-69
2023/01/24 05:36:30;;;;;;;23.00;12.23;;;;;;;5.88;94.36;101828.09;5098255;28;20568;-70
2023/01/24 05:38:56;;;;;;;18.65;12.02;;;;;;;5.85;94.32;101834.44;5103905;28;20035;-70
2023/01/24 05:41:21;;;;;;;17.35;11.45;;;;;;;5.79;93.15;101826.69;5101171;28;20045;-70
2023/01/24 05:43:47;;;;;;;15.05;10.13;;;;;;;5.84;92.68;101838.00;5098881;28;20035;-70
2023/01/24 05:46:16;;;;;;;16.70;10.70;;;;;;;5.77;91.92;101843.66;5102094;28;20039;-70
2023/01/24 05:48:43;;;;;;;16.92;10.60;;;;;;;5.77;91.65;101852.50;5101738;28;20024;-69
2023/01/24 05:51:11;;;;;;;15.98;10.18;;;;;;;5.74;92.21;101854.44;5099319;28;20405;-69
2023/01/24 05:53:38;;;;;;;17.02;10.80;;;;;;;5.76;92.49;101860.53;5101548;28;20703;-70
2023/01/24 05:56:06;;;;;;;15.70;10.20;;;;;;;5.67;92.91;101845.00;5104496;28;20050;-70
2023/01/24 05:58:34;;;;;;;17.08;10.38;;;;;;;5.75;93.16;101864.16;5096005;28;20024;-70
2023/01/24 06:01:00;;;;;;;18.05;11.65;;;;;;;5.49;91.75;101820.03;5102584;28;20016;-70
2023/01/24 06:03:26;;;;;;;18.55;11.20;;;;;;;5.68;91.92;101852.03;5094468;28;20688;-70
2023/01/24 06:05:54;;;;;;;15.35;10.18;;;;;;;5.71;92.22;101859.91;5096962;28;20031;-69
2023/01/24 06:08:20;;;;;;;14.63;9.63;;;;;;;5.70;91.68;101858.16;5099344;28;20392;-70
2023/01/24 06:10:46;;;;;;;14.40;10.00;;;;;;;5.66;92.09;101865.41;5095129;28;20518;-69
2023/01/24 06:13:12;;;;;;;19.55;10.90;;;;;;;5.62;90.86;101866.47;5100056;28;20032;-70
2023/01/24 06:15:38;;;;;;;16.60;9.68;;;;;;;5.64;90.37;101877.06;5094786;28;20457;-69
2023/01/24 06:18:04;;;;;;;17.70;10.32;;;;;;;5.61;90.37;101870.06;5102544;27;20035;-70
2023/01/24 06:20:30;;;;;;;14.60;9.52;;;;;;;5.57;89.29;101868.47;5102027;28;20019;-70
2023/01/24 06:23:18;;;;;;;17.88;10.32;;;;;;;5.66;88.63;101875.19;5099445;28;20038;-71
2023/01/24 06:25:44;;;;;;;14.93;9.93;;;;;;;5.61;89.23;101879.84;5098897;27;20032;-71
2023/01/24 06:28:10;;;;;;;20.75;9.77;;;;;;;5.60;89.15;101888.75;5097140;28;20084;-70
2023/01/24 06:30:40;;;;;;;19.63;9.85;;;;;;;5.59;89.02;101889.69;5098244;28;20032;-70
2023/01/24 06:33:14;;;;;;;16.10;10.50;;;;;;;5.65;89.08;101892.97;5099733;28;20020;-69
2023/01/24 06:36:10;;;;;;;22.98;10.70;;;;;;;5.57;88.33;101889.75;5099945;28;20227;-70
2023/01/24 06:38:35;;;;;;;14.63;9.98;;;;;;;5.64;88.45;101906.34;5101346;27;20445;-70
2023/01/24 06:41:02;;;;;;;14.32;9.52;;;;;;;5.55;88.47;101894.25;5103319;28;20051;-70
2023/01/24 06:43:28;;;;;;;16.58;10.50;;;;;;;5.60;88.53;101913.56;5106997;28;20023;-68
2023/01/24 06:45:55;;;;;;;19.40;10.80;;;;;;;5.63;87.55;101915.22;5097790;28;20069;-70
2023/01/24 06:48:20;;;;;;;17.52;10.63;;;;;;;5.59;87.81;101914.50;5106805;28;20027;-69
2023/01/24 06:50:47;;;;;;;18.80;10.43;;;;;;;5.57;88.08;101905.72;5101650;27;20119;-69
2023/01/24 06:53:14;;;;;;;14.95;10.00;;;;;;;5.48;88.32;101906.09;5102288;27;20055;-70
2023/01/24 06:55:39;;;;;;;17.60;10.07;;;;;;;5.53;88.05;101919.22;5102508;27;20096;-70
2023/01/24 06:58:05;;;;;;;17.10;10.38;;;;;;;5.44;87.33;101909.81;5093083;27;20024;-70
2023/01/24 07:00:30;;;;;;;16.50;10.55;;;;;;;5.43;86.90;101912.53;5090041;28;20024;-70
2023/01/24 07:03:07;;;;;;;18.48;10.63;;;;;;;5.45;87.77;101924.00;5103591;28;20028;-70
2023/01/24 07:05:34;;;;;;;16.52;9.82;;;;;;;5.42;88.57;101927.63;5099204;27;20047;-71
2023/01/24 07:08:00;;;;;;;20.23;11.63;;;;;;;5.40;88.29;101932.16;5105053;27;20122;-70
2023/01/24 07:10:26;;;;;;;18.20;10.63;;;;;;;5.37;88.87;101926.97;5106802;28;20106;-70
2023/01/24 07:12:51;;;;;;;22.73;11.00;;;;;;;5.36;89.10;101935.88;5106601;28;20096;-70
2023/01/24 07:15:17;;;;;;;17.40;11.23;;;;;;;5.37;88.73;101939.41;5106042;28;20034;-70
2023/01/24 07:17:43;;;;;;;17.27;11.15;;;;;;;5.30;89.65;101928.16;5106082;28;20092;-71
2023/01/24 07:20:11;;;;;;;18.58;11.45;;;;;;;5.30;89.68;101930.81;5108261;27;20160;-70
2023/01/24 07:22:37;;;;;;;22.60;12.00;;;;;;;5.34;90.00;101937.75;5103599;27;20032;-70
2023/01/24 07:25:04;;;;;;;20.42;12.13;;;;;;;5.31;90.47;101934.31;5107800;27;20061;-70
2023/01/24 07:27:30;;;;;;;21.40;11.93;;;;;;;5.27;90.95;101938.03;5106077;28;20023;-70
2023/01/24 07:29:56;;;;;;;22.52;12.75;;;;;;;5.33;90.36;101943.13;5106243;28;20388;-69
2023/01/24 07:32:21;;;;;;;19.40;12.38;;;;;;;5.26;90.10;101933.66;5107817;28;20686;-69
2023/01/24 07:34:47;;;;;;;24.30;13.20;;;;;;;5.30;90.61;101946.78;5106776;28;20035;-69
2023/01/24 07:37:12;;;;;;;22.67;14.57;;;;;;;5.21;91.12;101931.19;5107973;28;20035;-69
2023/01/24 07:39:37;;;;;;;24.35;16.08;;;;;;;5.24;91.53;101939.03;5109465;28;20042;-70
2023/01/24 07:42:03;;;;;;;29.67;17.42;;;;;;;5.26;92.29;101957.59;5109795;27;20108;-70
2023/01/24 07:44:28;;;;;;;35.70;19.48;;;;;;;5.24;92.95;101956.78;5108077;28;20035;-69
2023/01/24 07:46:55;;;;;;;32.00;19.50;;;;;;;5.24;93.56;101949.69;5109965;28;20027;-69
2023/01/24 07:49:20;;;;;;;27.27;16.75;;;;;;;5.23;94.14;101958.59;5108413;28;20020;-70
2023/01/24 07:51:48;;;;;;;29.80;19.42;;;;;;;5.27;94.29;101960.19;5108916;28;20038;-70
2023/01/24 07:54:13;;;;;;;26.80;15.45;;;;;;;5.27;93.95;101965.53;5107708;28;20028;-70
2023/01/24 07:56:39;;;;;;;31.13;19.92;;;;;;;5.27;93.89;101967.31;5109314;28;20037;-70
2023/01/24 07:59:04;;;;;;;32.78;20.88;;;;;;;5.28;94.00;101971.69;5105807;28;20457;-70
2023/01/24 08:01:30;;;;;;;35.45;22.25;;;;;;;5.29;94.46;101974.28;5107229;28;20500;-70
2023/01/24 08:03:57;;;;;;;32.72;22.08;;;;;;;5.27;94.42;101964.63;5109312;28;20505;-70
2023/01/24 08:06:22;;;;;;;29.85;18.08;;;;;;;5.21;94.66;101956.91;5107922;28;20081;-70
2023/01/24 08:08:49;;;;;;;24.33;15.98;;;;;;;5.24;94.67;101964.75;5108978;28;20031;-70
2023/01/24 08:11:17;;;;;;;29.17;17.20;;;;;;;5.27;94.12;101960.19;5109191;28;20053;-70
2023/01/24 08:13:46;;;;;;;29.45;17.45;;;;;;;5.33;94.02;101969.72;5099738;28;20038;-70
2023/01/24 08:16:12;;;;;;;30.73;18.70;;;;;;;5.40;93.71;101966.75;5106469;28;20503;-69
2023/01/24 08:18:38;;;;;;;30.65;19.00;;;;;;;5.36;93.77;101946.53;5108873;28;20028;-69
2023/01/24 08:21:04;;;;;;;28.55;17.85;;;;;;;5.46;93.74;101958.53;5108902;28;20483;-69
2023/01/24 08:23:30;;;;;;;30.02;18.15;;;;;;;5.47;94.00;101957.59;5108909;28;20104;-69
2023/01/24 08:26:00;;;;;;;34.15;20.23;;;;;;;5.57;93.73;101958.06;5106616;28;20034;-69
2023/01/24 08:28:26;;;;;;;30.98;19.60;;;;;;;5.59;92.98;101964.22;5105215;28;20038;-69
2023/01/24 08:30:51;;;;;;;28.00;18.73;;;;;;;5.65;92.51;101964.84;5103622;28;20019;-69
2023/01/24 08:33:18;;;;;;;32.00;18.67;;;;;;;5.71;91.53;101963.72;5105176;28;20106;-70
2023/01/24 08:35:45;;;;;;;29.33;17.13;;;;;;;5.79;91.12;101962.44;5107097;28;20472;-69
2023/01/24 08:38:14;;;;;;;21.08;13.95;;;;;;;5.88;90.54;101956.78;5108564;28;20463;-69
2023/01/24 08:40:40;;;;;;;20.17;12.50;;;;;;;6.00;89.33;101960.72;5107634;28;20034;-70
2023/01/24 08:43:06;;;;;;;17.77;11.40;;;;;;;5.99;89.14;101957.19;5108130;28;20032;-70
2023/01/24 08:45:31;;;;;;;16.48;10.93;;;;;;;6.16;87.18;101965.28;5103446;28;20028;-70
2023/01/24 08:47:57;;;;;;;17.50;9.88;;;;;;;6.21;86.01;101963.31;5108781;28;20420;-69
2023/01/24 08:50:23;;;;;;;16.88;9.65;;;;;;;6.26;83.65;101961.28;5108544;28;20050;-69
2023/01/24 08:52:48;;;;;;;15.52;9.07;;;;;;;6.35;82.45;101976.00;5108158;28;20039;-69
2023/01/24 08:55:14;;;;;;;12.35;8.85;;;;;;;6.37;82.29;101974.16;5108347;28;20040;-69
2023/01/24 08:57:40;;;;;;;14.68;9.73;;;;;;;6.44;82.66;101978.28;5108450;28;20024;-70
2023/01/24 09:00:06;;;;;;;15.25;8.80;;;;;;;6.40;82.47;101966.91;5104027;28;20031;-69
2023/01/24 09:02:37;;;;;;;14.25;9.02;;;;;;;6.53;81.71;101984.06;5107027;28;20127;-69
2023/01/24 09:05:07;;;;;;;12.40;8.82;;;;;;;6.58;80.65;101998.03;5105871;28;20077;-69
2023/01/24 09:07:36;;;;;;;13.00;7.93;;;;;;;6.61;80.49;102005.91;5108395;28;20154;-69
2023/01/24 09:10:03;;;;;;;13.60;8.20;;;;;;;6.63;79.86;102008.50;5108028;28;20472;-69
2023/01/24 09:12:28;;;;;;;16.42;8.63;;;;;;;6.62;79.98;102004.97;5108087;28;20035;-69
2023/01/24 09:14:54;;;;;;;10.65;7.63;;;;;;;6.61;79.53;101997.91;5105213;28;20069;-69
2023/01/24 09:17:19;;;;;;;15.32;8.90;;;;;;;6.64;78.71;101999.56;5105613;28;20039;-69
2023/01/24 09:19:45;;;;;;;12.07;8.40;;;;;;;6.59;78.84;101994.47;5106243;28;20070;-69
2023/01/24 09:22:10;;;;;;;12.73;8.75;;;;;;;6.62;78.88;101988.13;5107884;28;20818;-69
2023/01/24 09:24:35;;;;;;;12.27;7.43;;;;;;;6.63;78.98;101990.72;5107832;28;20093;-69
2023/01/24 09:27:01;;;;;;;14.98;8.27;;;;;;;6.70;78.97;102008.16;5108311;28;20027;-70
2023/01/24 09:29:26;;;;;;;12.48;8.65;;;;;;;6.72;78.74;102003.66;5106074;28;20083;-70
2023/01/24 09:31:54;;;;;;;14.63;8.45;;;;;;;6.64;79.16;101988.91;5107823;28;20026;-70
2023/01/24 09:34:20;;;;;;;20.75;11.05;;;;;;;6.71;79.04;101985.06;5107566;28;20052;-69
2023/01/24 09:36:48;;;;;;;12.70;8.60;;;;;;;6.66;78.64;101987.91;5105957;28;20143;-70
2023/01/24 09:39:14;;;;;;;13.68;8.00;;;;;;;6.68;78.31;101980.69;5108277;28;20155;-69
2023/01/24 09:42:00;;;;;;;10.43;7.38;;;;;;;6.60;78.11;101979.31;5106485;28;20052;-70
2023/01/24 09:44:44;;;;;;;14.88;8.70;;;;;;;6.64;77.84;101976.44;5107933;28;20023;-70
2023/01/24 09:47:23;;;;;;;14.50;8.95;;;;;;;6.68;77.96;101972.69;5108296;28;20533;-70
2023/01/24 09:49:54;;;;;;;11.95;8.18;;;;;;;6.67;78.96;101978.97;5107945;28;20084;-70
2023/01/24 09:52:42;;;;;;;12.23;7.93;;;;;;;6.62;78.40;101967.66;5106670;28;20048;-70
2023/01/24 09:55:34;;;;;;;11.77;8.38;;;;;;;6.65;78.98;101977.31;5106669;28;20043;-69
2023/01/24 09:58:18;;;;;;;13.57;7.88;;;;;;;6.64;79.05;101965.78;5110522;28;20032;-69
2023/01/24 10:00:45;;;;;;;12.20;8.18;;;;;;;6.63;79.37;101955.19;5108720;28;20023;-70
2023/01/24 10:03:22;;;;;;;14.35;9.32;;;;;;;6.64;78.68;101968.44;5108993;28;20036;-70
2023/01/24 10:05:54;;;;;;;13.52;8.52;;;;;;;6.62;78.73;101951.66;5108210;28;20031;-70
2023/01/24 10:08:37;;;;;;;17.70;9.48;;;;;;;6.61;79.42;101960.59;5111630;28;20498;-70
2023/01/24 10:11:22;;;;;;;13.35;9.10;;;;;;;6.60;80.74;101961.53;5109837;28;20027;-69
2023/01/24 10:14:08;;;;;;;15.18;9.10;;;;;;;6.63;80.19;101957.84;5109277;28;20027;-70
2023/01/24 10:16:49;;;;;;;18.02;9.45;;;;;;;6.60;80.57;101958.00;5107629;28;20031;-70
2023/01/24 10:19:17;;;;;;;15.20;8.88;;;;;;;6.63;80.43;101953.41;5104383;28;20571;-70
2023/01/24 10:21:56;;;;;;;15.98;9.45;;;;;;;6.59;80.31;101941.16;5110981;28;20015;-69
2023/01/24 10:24:28;;;;;;;14.68;9.20;;;;;;;6.64;79.52;101952.47;5108651;28;20039;-70
2023/01/24 10:26:53;;;;;;;13.95;8.82;;;;;;;6.64;79.88;101940.91;5110261;28;20035;-70
2023/01/24 10:29:25;;;;;;;14.90;8.82;;;;;;;6.72;80.56;101946.78;5105155;28;20130;-69
2023/01/24 10:32:04;;;;;;;13.15;9.43;;;;;;;6.77;81.66;101944.75;5108691;28;20031;-68
2023/01/24 10:34:39;;;;;;;15.35;10.07;;;;;;;6.73;81.88;101930.72;5110505;28;20023;-69
2023/01/24 10:37:09;;;;;;;18.83;10.70;;;;;;;6.82;80.77;101935.63;5105954;28;20058;-70
2023/01/24 10:39:38;;;;;;;13.00;9.40;;;;;;;6.92;81.00;101938.72;5109010;28;20035;-69
2023/01/24 10:42:27;;;;;;;15.20;10.30;;;;;;;7.04;79.95;101932.81;5108048;28;20031;-69
2023/01/24 10:44:57;;;;;;;19.48;9.48;;;;;;;7.11;78.17;101936.91;5110678;28;20036;-70
2023/01/24 10:47:45;;;;;;;14.15;9.00;;;;;;;7.18;77.84;101932.13;5110627;28;20123;-70
2023/01/24 10:50:14;;;;;;;16.30;9.82;;;;;;;7.22;78.47;101929.22;5104354;28;20023;-70
2023/01/24 10:52:41;;;;;;;15.27;9.52;;;;;;;7.29;78.21;101924.47;5110839;28;20036;-70
2023/01/24 10:55:30;;;;;;;18.85;8.90;;;;;;;7.32;76.23;101919.00;5110441;28;20058;-70
2023/01/24 10:57:55;;;;;;;15.50;9.43;;;;;;;7.38;75.46;101924.88;5098876;28;20108;-71
2023/01/24 11:00:26;;;;;;;13.40;9.32;;;;;;;7.50;76.08;101920.75;5108500;28;20481;-70
2023/01/24 11:02:58;;;;;;;16.30;9.30;;;;;;;7.52;75.86;101905.53;5107578;28;20038;-69
2023/01/24 11:05:26;;;;;;;15.30;9.63;;;;;;;7.59;74.63;101901.59;5108889;28;20653;-69
2023/01/24 11:07:58;;;;;;;15.43;9.75;;;;;;;7.68;75.13;101895.81;5106700;28;20229;-70
2023/01/24 11:10:29;;;;;;;12.35;9.05;;;;;;;7.70;74.75;101893.94;5110195;28;20032;-69
2023/01/24 11:12:57;;;;;;;12.68;8.70;;;;;;;7.77;74.44;101893.50;5106750;28;20043;-70
2023/01/24 11:15:33;;;;;;;15.80;9.43;;;;;;;7.78;74.06;101881.91;5109677;28;20038;-70
2023/01/24 11:18:10;;;;;;;14.52;9.25;;;;;;;7.90;73.63;101891.09;5108758;28;20031;-69
2023/01/24 11:20:36;;;;;;;16.23;8.82;;;;;;;8.00;73.66;101889.66;5109257;28;20016;-68
2023/01/24 11:23:24;;;;;;;12.80;8.48;;;;;;;8.08;73.71;101884.78;5108047;28;20043;-68
2023/01/24 11:25:55;;;;;;;12.63;8.25;;;;;;;8.08;72.82;101872.28;5105918;28;20045;-71
2023/01/24 11:28:26;;;;;;;13.38;8.68;;;;;;;8.18;72.97;101878.00;5107519;28;20024;-71
2023/01/24 11:30:52;;;;;;;14.90;9.07;;;;;;;8.19;72.57;101874.41;5109565;28;20625;-70
2023/01/24 11:33:30;;;;;;;14.00;8.00;;;;;;;8.25;72.70;101876.75;5108054;28;20111;-69
2023/01/24 11:36:02;;;;;;;12.75;7.82;;;;;;;8.32;73.06;101879.00;5108854;28;20076;-69
2023/01/24 11:38:57;;;;;;;14.25;7.72;;;;;;;8.35;72.59;101878.00;5107667;28;20028;-69
2023/01/24 11:41:28;;;;;;;12.85;7.30;;;;;;;8.40;72.34;101876.81;5087822;28;20081;-68
2023/01/24 11:44:32;;;;;;;11.45;7.45;;;;;;;8.39;72.23;101874.22;5102905;28;20038;-68
2023/01/24 11:47:18;;;;;;;14.48;7.88;;;;;;;8.33;72.52;101856.72;5108326;28;20036;-67
2023/01/24 11:50:23;;;;;;;13.52;7.55;;;;;;;8.43;72.31;101870.44;5105762;28;20112;-68
2023/01/24 11:52:51;;;;;;;10.82;7.82;;;;;;;8.43;72.00;101867.75;5083932;28;20092;-69
2023/01/24 11:55:33;;;;;;;13.73;7.90;;;;;;;8.39;71.67;101867.03;5106342;28;20111;-68
2023/01/24 11:58:26;;;;;;;17.98;7.63;;;;;;;8.38;72.00;101864.44;5103574;28;20097;-68
2023/01/24 12:01:06;;;;;;;14.20;8.13;;;;;;;8.38;72.13;101868.00;5106412;28;20111;-70
2023/01/24 12:03:56;;;;;;;14.45;8.25;;;;;;;8.41;71.83;101862.47;5105985;28;20035;-70
2023/01/24 12:06:28;;;;;;;14.02;7.57;;;;;;;8.42;72.19;101863.34;5106950;28;20062;-70